createdAt,value
2022-07-28T00:00:37.175Z,75.20
2022-07-28T00:03:39.008Z,75.10
2022-07-28T00:06:40.656Z,74.90
2022-07-28T00:09:42.412Z,75.30
2022-07-28T00:12:44.699Z,76.50
2022-07-28T00:15:46.432Z,76.40
2022-07-28T00:18:48.080Z,75.10
2022-07-28T00:21:49.802Z,75.30
2022-07-28T00:24:51.500Z,75.30
2022-07-28T00:27:53.327Z,76.10
2022-07-28T00:31:05.450Z,76.10
2022-07-28T00:34:12.661Z,75.40
2022-07-28T00:37:15.073Z,76.80
2022-07-28T00:40:16.974Z,76.00
2022-07-28T00:43:19.576Z,76.10
2022-07-28T00:46:22.738Z,76.20
2022-07-28T00:49:24.653Z,76.40
2022-07-28T00:52:27.037Z,75.70
2022-07-28T00:55:28.842Z,77.70
2022-07-28T00:58:30.792Z,77.20
2022-07-28T01:01:32.515Z,76.90
2022-07-28T01:04:34.548Z,78.10
2022-07-28T01:07:50.070Z,78.20
2022-07-28T01:10:58.826Z,77.60
2022-07-28T01:14:19.165Z,78.00
2022-07-28T01:17:35.832Z,75.70
2022-07-28T01:20:41.636Z,77.80
2022-07-28T01:24:11.482Z,77.50
2022-07-28T01:27:48.422Z,76.40
2022-07-28T01:31:11.011Z,75.90
2022-07-28T01:34:29.424Z,78.50
2022-07-28T01:37:32.135Z,78.00
2022-07-28T01:40:35.690Z,77.60
2022-07-28T01:43:41.506Z,77.80
2022-07-28T01:46:45.256Z,78.30
2022-07-28T01:49:47.874Z,78.10
2022-07-28T01:52:51.099Z,78.30
2022-07-28T01:55:53.428Z,78.60
2022-07-28T01:58:58.001Z,78.80
2022-07-28T02:02:00.897Z,80.20
2022-07-28T02:05:03.287Z,79.00
2022-07-28T02:08:05.887Z,79.30
2022-07-28T02:11:26.988Z,79.10
2022-07-28T02:14:29.982Z,79.20
2022-07-28T02:17:33.404Z,79.00
2022-07-28T02:20:35.572Z,79.40
2022-07-28T02:23:39.040Z,79.60
2022-07-28T02:26:48.332Z,79.80
2022-07-28T02:30:13.145Z,80.20
2022-07-28T02:33:24.405Z,80.20
2022-07-28T02:36:49.711Z,80.80
2022-07-28T02:40:00.273Z,80.30
2022-07-28T02:43:04.105Z,80.50
2022-07-28T02:46:11.684Z,80.10
2022-07-28T02:49:28.248Z,80.70
2022-07-28T02:52:30.681Z,80.90
2022-07-28T02:55:33.864Z,80.80
2022-07-28T02:58:37.376Z,81.30
2022-07-28T03:01:39.277Z,81.50
2022-07-28T03:04:58.328Z,80.90
2022-07-28T03:08:00.356Z,81.00
2022-07-28T03:11:10.199Z,81.00
2022-07-28T03:14:12.206Z,81.70
2022-07-28T03:17:14.126Z,80.80
2022-07-28T03:20:15.801Z,81.20
2022-07-28T03:23:17.566Z,81.40
2022-07-28T03:26:30.666Z,81.10
2022-07-28T03:29:34.545Z,81.80
2022-07-28T03:32:41.777Z,81.60
2022-07-28T03:35:48.565Z,82.10
2022-07-28T03:39:00.575Z,82.40
2022-07-28T03:42:04.038Z,80.80
2022-07-28T03:45:06.603Z,86.90
2022-07-28T03:48:08.640Z,81.70
2022-07-28T03:51:10.327Z,82.20
2022-07-28T03:54:12.284Z,82.30
2022-07-28T03:57:14.077Z,82.30
2022-07-28T04:00:17.185Z,82.50
2022-07-28T04:03:34.954Z,82.60
2022-07-28T04:06:41.519Z,82.90
2022-07-28T04:09:43.072Z,82.50
2022-07-28T04:12:55.364Z,83.10
2022-07-28T04:15:56.947Z,81.30
2022-07-28T04:18:58.519Z,83.50
2022-07-28T04:22:00.136Z,83.00
2022-07-28T04:25:01.929Z,83.00
2022-07-28T04:28:05.499Z,83.30
2022-07-28T04:31:07.227Z,83.40
2022-07-28T04:34:09.730Z,83.50
2022-07-28T04:37:11.845Z,83.60
2022-07-28T04:40:14.044Z,83.30
2022-07-28T04:43:15.702Z,83.70
2022-07-28T04:46:17.350Z,83.50
2022-07-28T04:49:19.073Z,83.50
2022-07-28T04:52:21.846Z,83.90
2022-07-28T04:55:23.425Z,84.60
2022-07-28T04:58:25.153Z,83.90
2022-07-28T05:01:28.403Z,83.70
2022-07-28T05:04:30.131Z,83.60
2022-07-28T05:07:31.773Z,84.00
2022-07-28T05:10:33.411Z,83.90
2022-07-28T05:13:35.529Z,83.70
2022-07-28T05:16:37.254Z,83.60
2022-07-28T05:19:40.125Z,83.40
2022-07-28T05:22:46.606Z,83.80
2022-07-28T05:25:48.205Z,84.20
2022-07-28T05:28:49.785Z,84.00
2022-07-28T05:31:51.515Z,83.90
2022-07-28T05:34:53.146Z,83.90
2022-07-28T05:37:54.737Z,83.90
2022-07-28T05:40:56.422Z,83.70
2022-07-28T05:43:58.415Z,83.80
2022-07-28T05:47:00.013Z,83.90
2022-07-28T05:50:02.038Z,84.20
2022-07-28T05:53:04.185Z,83.90
2022-07-28T05:56:06.491Z,83.70
2022-07-28T05:59:10.107Z,83.50
2022-07-28T06:02:11.953Z,83.70
2022-07-28T06:05:14.586Z,83.50
2022-07-28T06:08:16.246Z,83.70
2022-07-28T06:11:21.993Z,83.10
2022-07-28T06:14:24.491Z,82.90
2022-07-28T06:17:26.094Z,82.70
2022-07-28T06:20:27.933Z,82.40
2022-07-28T06:23:30.389Z,81.70
2022-07-28T06:26:32.003Z,81.40
2022-07-28T06:29:33.605Z,81.30
2022-07-28T06:32:35.264Z,81.00
2022-07-28T06:35:43.269Z,81.10
2022-07-28T06:38:52.386Z,80.80
2022-07-28T06:41:54.124Z,80.70
2022-07-28T06:44:59.453Z,81.30
2022-07-28T06:48:01.570Z,80.20
2022-07-28T06:51:03.544Z,80.60
2022-07-28T06:54:10.789Z,81.40
2022-07-28T06:57:13.738Z,81.50
2022-07-28T07:00:16.246Z,81.30
2022-07-28T07:03:17.833Z,80.70
2022-07-28T07:06:19.578Z,80.70
2022-07-28T07:09:21.216Z,80.50
2022-07-28T07:12:22.909Z,80.40
2022-07-28T07:15:24.506Z,80.40
2022-07-28T07:18:26.658Z,80.80
2022-07-28T07:21:28.258Z,81.00
2022-07-28T07:24:29.869Z,80.90
2022-07-28T07:27:31.453Z,80.70
2022-07-28T07:30:33.060Z,80.50
2022-07-28T07:33:34.668Z,80.30
2022-07-28T07:36:36.274Z,80.00
2022-07-28T07:39:37.924Z,80.60
2022-07-28T07:42:39.573Z,80.10
2022-07-28T07:45:41.461Z,80.30
2022-07-28T07:48:43.504Z,80.00
2022-07-28T07:51:45.253Z,80.00
2022-07-28T07:54:47.054Z,78.70
2022-07-28T07:57:48.845Z,78.50
2022-07-28T08:00:50.779Z,78.50
2022-07-28T08:03:53.870Z,78.20
2022-07-28T08:06:55.680Z,77.80
2022-07-28T08:09:58.174Z,77.90
2022-07-28T08:13:01.112Z,77.80
2022-07-28T08:16:04.224Z,78.80
2022-07-28T08:19:06.812Z,77.30
2022-07-28T08:22:11.238Z,77.70
2022-07-28T08:25:13.471Z,77.40
2022-07-28T08:28:15.913Z,76.40
2022-07-28T08:31:22.243Z,77.50
2022-07-28T08:34:31.299Z,77.30
2022-07-28T08:37:35.635Z,76.60
2022-07-28T08:40:39.705Z,76.10
2022-07-28T08:43:46.738Z,76.70
2022-07-28T08:46:50.016Z,75.50
2022-07-28T08:50:03.214Z,76.50
2022-07-28T08:53:08.067Z,74.40
2022-07-28T08:56:21.718Z,75.80
2022-07-28T08:59:25.488Z,76.50
2022-07-28T09:02:38.467Z,75.70
2022-07-28T09:05:42.421Z,75.00
2022-07-28T09:08:44.080Z,74.80
2022-07-28T09:11:46.112Z,74.20
2022-07-28T09:14:48.692Z,73.70
2022-07-28T09:17:50.392Z,74.30
2022-07-28T09:20:52.111Z,75.20
2022-07-28T09:23:54.630Z,74.00
2022-07-28T09:27:06.640Z,75.00
2022-07-28T09:30:09.893Z,73.60
2022-07-28T09:33:41.046Z,73.00
2022-07-28T09:36:45.833Z,72.40
2022-07-28T09:39:49.147Z,74.00
2022-07-28T09:42:54.337Z,73.40
2022-07-28T09:46:11.038Z,74.40
2022-07-28T09:49:13.380Z,71.00
2022-07-28T09:52:30.779Z,73.30
2022-07-28T09:55:53.387Z,70.70
2022-07-28T09:59:02.060Z,72.20
2022-07-28T10:02:04.218Z,72.60
2022-07-28T10:05:07.048Z,74.00
2022-07-28T10:08:08.665Z,71.80
2022-07-28T10:11:11.499Z,72.10
2022-07-28T10:14:14.150Z,71.80
2022-07-28T10:17:30.906Z,71.90
2022-07-28T10:20:34.043Z,72.00
2022-07-28T10:23:38.639Z,70.60
2022-07-28T10:26:45.507Z,71.70
2022-07-28T10:29:49.272Z,70.90
2022-07-28T10:32:54.330Z,71.50
2022-07-28T10:35:56.060Z,69.50
2022-07-28T10:39:13.949Z,69.40
2022-07-28T10:42:15.917Z,69.70
2022-07-28T10:45:18.042Z,69.20
2022-07-28T10:48:43.431Z,67.90
2022-07-28T10:52:04.937Z,68.70
2022-07-28T10:55:21.710Z,68.20
2022-07-28T10:59:04.660Z,69.10
2022-07-28T11:02:06.837Z,66.50
2022-07-28T11:05:28.800Z,67.80
2022-07-28T11:08:31.331Z,66.70
2022-07-28T11:11:50.175Z,67.60
2022-07-28T11:14:51.908Z,68.30
2022-07-28T11:18:01.647Z,67.50
2022-07-28T11:21:03.245Z,64.80
2022-07-28T11:24:05.145Z,68.20
2022-07-28T11:27:06.808Z,67.10
2022-07-28T11:30:32.661Z,67.20
2022-07-28T11:33:53.756Z,66.70
2022-07-28T11:36:58.158Z,67.10
2022-07-28T11:40:33.302Z,66.10
2022-07-28T11:43:36.032Z,64.50
2022-07-28T11:46:40.051Z,65.60
2022-07-28T11:49:42.585Z,65.90
2022-07-28T11:52:59.981Z,65.40
2022-07-28T11:56:15.703Z,65.40
2022-07-28T11:59:17.951Z,64.70
2022-07-28T12:02:22.473Z,66.90
2022-07-28T12:05:25.520Z,65.00
2022-07-28T12:08:27.305Z,65.60
2022-07-28T12:11:33.216Z,64.60
2022-07-28T12:14:40.677Z,64.50
2022-07-28T12:17:42.430Z,64.90
2022-07-28T12:20:48.614Z,64.70
2022-07-28T12:23:54.234Z,64.30
2022-07-28T12:26:57.545Z,63.50
2022-07-28T12:30:01.928Z,64.10
2022-07-28T12:33:20.172Z,64.70
2022-07-28T12:36:24.149Z,62.60
2022-07-28T12:39:26.318Z,64.00
2022-07-28T12:42:31.757Z,63.90
2022-07-28T12:45:33.490Z,63.20
2022-07-28T12:48:39.697Z,64.40
2022-07-28T12:51:45.203Z,65.10
2022-07-28T12:54:55.225Z,62.60
2022-07-28T12:57:57.920Z,62.10
2022-07-28T13:01:00.090Z,62.40
2022-07-28T13:04:01.799Z,61.00
2022-07-28T13:07:13.640Z,62.10
2022-07-28T13:10:15.296Z,61.10
2022-07-28T13:13:17.819Z,60.90
2022-07-28T13:16:25.055Z,60.90
2022-07-28T13:19:26.710Z,60.60
2022-07-28T13:22:29.383Z,60.80
2022-07-28T13:25:31.012Z,60.50
2022-07-28T13:28:34.047Z,60.50
2022-07-28T13:31:36.125Z,61.50
2022-07-28T13:34:38.203Z,59.50
2022-07-28T13:37:40.111Z,60.70
2022-07-28T13:40:41.801Z,60.00
2022-07-28T13:43:43.390Z,61.00
2022-07-28T13:46:50.536Z,62.10
2022-07-28T13:49:52.230Z,62.10
2022-07-28T13:52:54.655Z,62.00
2022-07-28T13:55:56.267Z,61.40
2022-07-28T13:58:57.863Z,61.40
2022-07-28T14:02:01.349Z,62.50
2022-07-28T14:05:03.125Z,62.30
2022-07-28T14:08:05.013Z,60.40
2022-07-28T14:11:06.833Z,59.50
2022-07-28T14:14:12.479Z,59.30
2022-07-28T14:17:40.011Z,58.50
2022-07-28T14:20:36.452Z,58.40
2022-07-28T14:23:38.085Z,59.00
2022-07-28T14:26:39.854Z,57.30
2022-07-28T14:29:43.209Z,57.80
2022-07-28T14:32:44.821Z,56.60
2022-07-28T14:35:46.899Z,56.90
2022-07-28T14:38:55.732Z,58.70
2022-07-28T14:41:57.358Z,59.00
2022-07-28T14:44:59.462Z,59.30
2022-07-28T14:48:01.067Z,58.90
2022-07-28T14:51:02.644Z,60.10
2022-07-28T14:54:04.284Z,57.60
2022-07-28T14:57:05.881Z,56.80
2022-07-28T15:00:13.219Z,56.70
2022-07-28T15:03:14.831Z,57.90
2022-07-28T15:06:16.421Z,58.50
2022-07-28T15:09:18.201Z,58.90
2022-07-28T15:12:20.064Z,60.30
2022-07-28T15:15:26.325Z,58.70
2022-07-28T15:18:28.037Z,59.10
2022-07-28T15:21:35.899Z,58.80
2022-07-28T15:24:38.042Z,59.60
2022-07-28T15:27:45.337Z,58.80
2022-07-28T15:30:51.677Z,59.60
2022-07-28T15:33:57.670Z,58.90
2022-07-28T15:37:00.880Z,59.50
2022-07-28T15:40:02.674Z,59.00
2022-07-28T15:43:04.356Z,58.80
2022-07-28T15:46:09.272Z,60.40
2022-07-28T15:49:11.974Z,60.30
2022-07-28T15:52:14.507Z,59.80
2022-07-28T15:55:16.195Z,59.30
2022-07-28T15:58:17.971Z,59.70
2022-07-28T16:01:20.333Z,60.40
2022-07-28T16:04:21.923Z,59.70
2022-07-28T16:07:28.087Z,61.60
2022-07-28T16:10:29.722Z,60.30
2022-07-28T16:13:37.058Z,61.60
2022-07-28T16:16:39.111Z,60.40
2022-07-28T16:19:49.925Z,61.30
2022-07-28T16:22:52.431Z,60.80
2022-07-28T16:25:54.011Z,60.80
2022-07-28T16:28:55.803Z,60.60
2022-07-28T16:31:57.523Z,60.40
2022-07-28T16:34:59.162Z,60.40
2022-07-28T16:38:02.464Z,61.20
2022-07-28T16:41:04.102Z,62.30
2022-07-28T16:44:06.411Z,60.90
2022-07-28T16:47:08.248Z,61.00
2022-07-28T16:50:09.969Z,61.10
2022-07-28T16:53:13.012Z,61.10
2022-07-28T16:56:17.318Z,61.20
2022-07-28T16:59:18.916Z,61.90
2022-07-28T17:02:20.546Z,61.30
2022-07-28T17:05:23.868Z,61.10
2022-07-28T17:08:27.653Z,61.30
2022-07-28T17:11:29.881Z,60.70
2022-07-28T17:14:32.302Z,61.10
2022-07-28T17:17:34.630Z,61.10
2022-07-28T17:20:40.682Z,61.10
2022-07-28T17:23:43.684Z,61.60
2022-07-28T17:30:10.501Z,62.00
2022-07-28T17:33:12.826Z,62.00
2022-07-28T17:36:16.061Z,61.20
2022-07-28T17:39:18.398Z,62.40
2022-07-28T17:42:20.728Z,62.10
2022-07-28T17:45:24.195Z,62.30
2022-07-28T17:48:26.577Z,62.20
2022-07-28T17:51:29.388Z,62.10
2022-07-28T17:54:51.685Z,62.50
2022-07-28T17:57:54.978Z,62.40
2022-07-28T18:01:11.065Z,68.90
2022-07-28T18:04:14.491Z,63.10
2022-07-28T18:07:17.090Z,61.20
2022-07-28T18:10:24.770Z,62.20
2022-07-28T18:13:29.748Z,62.20
2022-07-28T18:16:31.791Z,63.00
2022-07-28T18:19:34.150Z,62.90
2022-07-28T18:22:36.534Z,62.80
2022-07-28T18:25:43.467Z,62.60
2022-07-28T18:28:47.632Z,63.60
2022-07-28T18:31:57.522Z,63.00
2022-07-28T18:34:59.949Z,63.10
2022-07-28T18:38:02.425Z,64.30
2022-07-28T18:41:07.106Z,63.40
2022-07-28T18:44:09.369Z,62.80
2022-07-28T18:47:16.456Z,63.60
2022-07-28T18:50:28.110Z,63.70
2022-07-28T18:53:39.374Z,64.00
2022-07-28T18:56:46.950Z,63.50
2022-07-28T18:59:52.387Z,64.30
2022-07-28T19:02:59.404Z,64.00
2022-07-28T19:06:01.792Z,64.20
2022-07-28T19:09:04.496Z,63.60
2022-07-28T19:12:07.016Z,64.40
2022-07-28T19:15:09.015Z,63.80
2022-07-28T19:18:12.082Z,64.20
2022-07-28T19:21:13.972Z,64.60
2022-07-28T19:24:16.927Z,64.40
2022-07-28T19:27:20.261Z,64.90
2022-07-28T19:30:22.777Z,64.90
2022-07-28T19:33:25.527Z,64.50
2022-07-28T19:36:27.799Z,65.00
2022-07-28T19:39:33.968Z,64.90
2022-07-28T19:42:35.698Z,65.70
2022-07-28T19:45:37.493Z,65.00
2022-07-28T19:48:39.521Z,64.50
2022-07-28T19:51:41.342Z,65.10
2022-07-28T19:54:43.084Z,65.40
2022-07-28T19:57:55.087Z,65.30
2022-07-28T20:00:57.112Z,66.10
2022-07-28T20:04:01.542Z,65.20
2022-07-28T20:07:10.595Z,65.40
2022-07-28T20:10:13.934Z,65.60
2022-07-28T20:13:15.675Z,66.30
2022-07-28T20:16:17.649Z,66.30
2022-07-28T20:19:19.398Z,65.60
2022-07-28T20:22:21.224Z,65.80
2022-07-28T20:25:22.927Z,64.80
2022-07-28T20:28:25.016Z,67.00
2022-07-28T20:31:26.822Z,66.10
2022-07-28T20:34:28.691Z,67.20
2022-07-28T20:37:36.801Z,65.90
2022-07-28T20:40:39.277Z,65.10
2022-07-28T20:43:40.972Z,66.90
2022-07-28T20:46:42.736Z,66.00
2022-07-28T20:49:46.453Z,66.20
2022-07-28T20:52:57.800Z,65.00
2022-07-28T20:56:26.697Z,67.10
2022-07-28T20:59:29.842Z,65.80
2022-07-28T21:02:39.611Z,65.10
2022-07-28T21:05:57.652Z,66.30
2022-07-28T21:09:04.945Z,64.20
2022-07-28T21:12:07.624Z,66.60
2022-07-28T21:15:10.653Z,66.50
2022-07-28T21:18:13.630Z,66.80
2022-07-28T21:21:16.167Z,66.50
2022-07-28T21:24:19.749Z,66.40
2022-07-28T21:27:22.725Z,65.00
2022-07-28T21:30:28.481Z,67.20
2022-07-28T21:33:34.548Z,66.50
2022-07-28T21:36:37.079Z,66.20
2022-07-28T21:39:39.494Z,67.00
2022-07-28T21:42:46.886Z,66.70
2022-07-28T21:45:50.280Z,68.20
2022-07-28T21:48:56.643Z,65.80
2022-07-28T21:51:59.186Z,67.50
2022-07-28T21:55:13.235Z,66.70
2022-07-28T21:58:19.350Z,66.30
2022-07-28T22:01:22.705Z,66.60
2022-07-28T22:04:28.184Z,67.30
2022-07-28T22:07:30.525Z,67.30
2022-07-28T22:10:32.952Z,67.20
2022-07-28T22:13:35.483Z,67.10
2022-07-28T22:16:38.035Z,67.70
2022-07-28T22:19:40.519Z,66.90
2022-07-28T22:22:42.970Z,67.20
2022-07-28T22:25:45.449Z,65.80
2022-07-28T22:28:48.341Z,69.30
2022-07-28T22:31:51.947Z,67.10
2022-07-28T22:34:58.851Z,67.50
2022-07-28T22:38:06.122Z,67.50
2022-07-28T22:41:09.838Z,68.20
2022-07-28T22:44:16.319Z,67.20
2022-07-28T22:47:19.044Z,66.60
2022-07-28T22:50:21.553Z,67.40
2022-07-28T22:53:26.690Z,67.60
2022-07-28T22:56:34.880Z,67.70
2022-07-28T22:59:40.334Z,69.00
2022-07-28T23:02:45.607Z,67.60
2022-07-28T23:05:48.088Z,66.20
2022-07-28T23:08:53.224Z,69.00
2022-07-28T23:11:56.233Z,67.90
2022-07-28T23:14:58.683Z,68.70
2022-07-28T23:18:00.311Z,67.70
2022-07-28T23:21:04.386Z,68.20
2022-07-28T23:24:06.872Z,68.10
2022-07-28T23:27:08.458Z,67.40
2022-07-28T23:30:10.571Z,68.10
2022-07-28T23:33:15.517Z,67.70
2022-07-28T23:36:34.920Z,68.80
2022-07-28T23:39:36.535Z,68.10
2022-07-28T23:42:38.116Z,69.10
2022-07-28T23:45:39.788Z,68.50
2022-07-28T23:48:41.423Z,68.10
2022-07-28T23:51:47.693Z,68.60
2022-07-28T23:54:50.272Z,68.50
2022-07-28T23:57:51.856Z,68.40
